Fagelgracht — PBST — position and weather

sailwx.info

Track history (hours):
 
Tides and Currents Weather Stations Pressure Air Temp Water Temp Dewpoint Dewpoint Depression Visibility Wind Speed Wind Dir Waves Ship Positions

Fagelgracht

Last reported at 2018-May-18 06:07 UTC. Time now 2018-May-26 23:12 UTC.
Position N 43°36' W 005°57'.
Warning: this ship's position is 8 days out of date.

Length 136 m; draft 8.7 m.

Type: Cargo ship. MMSI: 246591000.

Date/timePositionNaut miles runAvg speedWind from/ knotsBaromVisibWave heightAir tempDewpointWater temp
2018-May-18 06:07N 43°36' W 005°57'1 5.6
2018-May-18 05:52N 43°37' W 005°58'4 8.7
2018-May-18 05:27N 43°39' W 006°03'710.7
2018-May-18 04:48N 43°42' W 006°11'311.2
2018-May-18 04:29N 43°43' W 006°16'253 9.4
2018-May-17 01:29N 40°26' W 009°50'612.8
2018-May-17 01:00N 40°20' W 009°50'612.7
2018-May-17 00:30N 40°14' W 009°50'612.9
2018-May-17 00:00N 40°08' W 009°50'2913.3
2018-May-16 21:50N 39°39' W 009°51'413.2
2018-May-16 21:30N 39°34' W 009°51'1313.4
2018-May-16 20:33N 39°22' W 009°51'113.2
2018-May-16 20:29N 39°21' W 009°51'613.1
2018-May-16 20:00N 39°14' W 009°51'713.1
2018-May-16 19:30N 39°08' W 009°51'612.5
2018-May-16 19:00N 39°02' W 009°51'612.7
2018-May-16 18:30N 38°55' W 009°51'612.7
2018-May-16 18:00N 38°49' W 009°52'612.4
2018-May-16 17:30N 38°43' W 009°51'612.8
2018-May-16 17:00N 38°36' W 009°50'612.5
2018-May-16 16:30N 38°30' W 009°48'612.2
2018-May-16 16:00N 38°24' W 009°47'612.6
2018-May-16 15:30N 38°18' W 009°44'612.9
2018-May-16 15:00N 38°12' W 009°42'612.6
2018-May-16 14:30N 38°06' W 009°40'612.7
2018-May-16 14:00N 37°60' W 009°39'612.6
2018-May-16 13:30N 37°54' W 009°37'612.6
2018-May-16 13:00N 37°47' W 009°35'612.4
2018-May-16 12:30N 37°41' W 009°33'612.5
2018-May-16 12:00N 37°35' W 009°32'612.1
2018-May-16 11:30N 37°29' W 009°30'612.5
2018-May-16 11:00N 37°23' W 009°28'612.7
2018-May-16 10:30N 37°17' W 009°26'612.6
2018-May-16 10:00N 37°11' W 009°25'612.6
2018-May-16 09:30N 37°05' W 009°23'612.5
2018-May-16 09:00N 36°59' W 009°21'612.7
2018-May-16 08:30N 36°52' W 009°19'612.8
2018-May-16 08:00N 36°48' W 009°13'612.8
2018-May-16 07:30N 36°44' W 009°07'613.1
2018-May-16 07:00N 36°42' W 008°60'713.5
2018-May-16 06:30N 36°40' W 008°52'713.6
2018-May-16 06:00N 36°37' W 008°44'714.2
2018-May-16 05:30N 36°35' W 008°35'714.2
2018-May-16 05:00N 36°34' W 008°27'714.6
2018-May-16 04:30N 36°32' W 008°18'714.6
2018-May-16 04:00N 36°29' W 008°09'714.8
2018-May-16 03:30N 36°27' W 008°00'12014.7
2018-May-15 19:20N 35°58' W 005°36'413.3
2018-May-15 19:00N 35°59' W 005°31'712.7
2018-May-15 18:29N 36°00' W 005°23'613.1
2018-May-15 18:00N 36°02' W 005°15'19514.5
2018-May-15 04:33N 36°32' W 001°16'315.0
2018-May-15 04:20N 36°32' W 001°12'515.2
2018-May-15 04:00N 36°33' W 001°06'815.4
2018-May-15 03:30N 36°35' W 000°56'815.4
2018-May-15 02:58N 36°36' W 000°46'715.5
2018-May-15 02:30N 36°37' W 000°38'815.6
2018-May-15 02:00N 36°39' W 000°28'815.6
2018-May-15 01:30N 36°40' W 000°18'815.6
2018-May-15 01:00N 36°41' W 000°09'815.4
2018-May-15 00:30N 36°42' E 000°01'815.3
2018-May-14 23:59N 36°43' E 000°11'715.3
2018-May-14 23:30N 36°44' E 000°20'815.3
2018-May-14 23:00N 36°46' E 000°29'915.0
2018-May-14 22:26N 36°47' E 000°40'1214.5
2018-May-14 21:35N 36°49' E 000°55'114.2
2018-May-14 21:30N 36°49' E 000°56'713.9
2018-May-14 21:00N 36°50' E 001°05'713.6
2018-May-14 20:30N 36°51' E 001°13'53913.7
2018-May-13 05:10N 37°01' E 012°28'214.6
2018-May-13 05:00N 37°01' E 012°31'714.6
2018-May-13 04:29N 36°58' E 012°40'714.7
2018-May-13 04:00N 36°56' E 012°48'714.5
2018-May-13 03:30N 36°53' E 012°57'714.7
2018-May-13 03:00N 36°51' E 013°05'814.7
2018-May-13 02:29N 36°49' E 013°14'714.7
2018-May-13 02:00N 36°47' E 013°23'1814.7
2018-May-13 00:48N 36°41' E 013°44'514.8
2018-May-13 00:28N 36°40' E 013°50'1014.6
2018-May-12 23:45N 36°37' E 014°02'414.6
2018-May-12 23:30N 36°36' E 014°07'714.5
2018-May-12 23:00N 36°35' E 014°15'814.5
2018-May-12 22:26N 36°33' E 014°25'614.5
2018-May-12 22:00N 36°30' E 014°32'714.3
2018-May-12 21:30N 36°27' E 014°41'714.3
2018-May-12 21:00N 36°28' E 014°49'714.0
2018-May-12 20:30N 36°29' E 014°58'714.7
2018-May-12 20:00N 36°30' E 015°07'8614.0
2018-May-12 13:50N 37°33' E 016°20'40611.7
2018-May-11 03:06N 44°05' E 014°03'1014.8
2018-May-11 02:26N 44°14' E 013°55'814.8
2018-May-11 01:52N 44°21' E 013°49'1414.9
2018-May-11 00:54N 44°33' E 013°38'2114.9
2018-May-10 23:31N 44°50' E 013°22'114.9
2018-May-10 23:29N 44°50' E 013°22'714.8
2018-May-10 23:00N 44°56' E 013°16'714.8
2018-May-10 22:30N 45°02' E 013°10'714.9
2018-May-10 22:00N 45°08' E 013°04'815.1
2018-May-10 21:30N 45°16' E 013°02'713.9
2018-May-10 21:00N 45°23' E 013°02'714.7
2018-May-10 20:30N 45°28' E 013°10'714.8
2018-May-10 20:00N 45°33' E 013°18'714.4
2018-May-10 19:30N 45°36' E 013°27'714.4
2018-May-10 19:00N 45°39' E 013°36'612.1
2018-May-10 18:30N 45°46' E 013°35'2 3.8
2018-May-10 17:58N 45°47' E 013°33'0 0.0
2018-May-10 17:16N 45°47' E 013°33'0 0.0
2018-May-10 16:58N 45°47' E 013°33'0 0.0
2018-May-10 16:22N 45°47' E 013°33'0 0.0
2018-May-10 15:58N 45°47' E 013°33'0 0.0
2018-May-10 15:28N 45°47' E 013°33'0 0.0
2018-May-10 14:58N 45°47' E 013°33'0 0.0
2018-May-10 14:28N 45°47' E 013°33'0 0.0
2018-May-10 13:58N 45°47' E 013°33'0 0.0
2018-May-10 13:28N 45°47' E 013°33'0 0.0
2018-May-10 12:52N 45°47' E 013°33'0 0.0
2018-May-10 12:19N 45°47' E 013°33'0 0.0
2018-May-10 11:58N 45°47' E 013°33'0 0.0
2018-May-10 11:28N 45°47' E 013°33'0 0.0
2018-May-10 10:58N 45°47' E 013°33'0 0.0
2018-May-10 10:28N 45°47' E 013°33'0 0.0
2018-May-10 09:52N 45°47' E 013°33'0 0.0
2018-May-10 09:28N 45°47' E 013°33'0 0.0
2018-May-10 08:58N 45°47' E 013°33'0 0.0
2018-May-10 08:28N 45°47' E 013°33'0 0.0
2018-May-10 07:58N 45°47' E 013°33'0 0.0
2018-May-10 07:28N 45°47' E 013°33'0 0.0
2018-May-10 06:58N 45°47' E 013°33'0 0.0
2018-May-10 06:28N 45°47' E 013°33'0 0.0
2018-May-10 05:58N 45°47' E 013°33'0 0.0
2018-May-10 05:25N 45°47' E 013°33'0 0.0
2018-May-10 04:58N 45°47' E 013°33'0 0.0
2018-May-10 04:28N 45°47' E 013°33'0 0.0
2018-May-10 03:55N 45°47' E 013°33'0 0.0
2018-May-10 03:28N 45°47' E 013°33'0 0.0
2018-May-10 02:58N 45°47' E 013°33'0 0.0
2018-May-10 02:28N 45°47' E 013°33'0 0.0
2018-May-10 01:58N 45°47' E 013°33'0 0.0
2018-May-10 01:28N 45°47' E 013°33'0 0.0
2018-May-10 00:58N 45°47' E 013°33'0 0.0
2018-May-10 00:22N 45°47' E 013°33'0 0.0
2018-May-09 23:52N 45°47' E 013°33'0 0.0
2018-May-09 23:22N 45°47' E 013°33'0 0.0
2018-May-09 22:58N 45°47' E 013°33'0 0.0
2018-May-09 22:28N 45°47' E 013°33'0 0.0
2018-May-09 21:58N 45°47' E 013°33'0 0.0
2018-May-09 21:28N 45°47' E 013°33'0 0.0
2018-May-09 20:49N 45°47' E 013°33'0 0.0
2018-May-09 20:22N 45°47' E 013°33'0 0.0
2018-May-09 19:55N 45°47' E 013°33'0 0.0
2018-May-09 19:25N 45°47' E 013°33'0 0.0
2018-May-09 18:58N 45°47' E 013°33'0 0.0
2018-May-09 18:22N 45°47' E 013°33'0 0.0
2018-May-09 17:55N 45°47' E 013°33'0 0.0
2018-May-09 17:19N 45°47' E 013°33'0 0.0
2018-May-09 16:58N 45°47' E 013°33'0 0.0
2018-May-09 16:28N 45°47' E 013°33'0 0.0
2018-May-09 15:52N 45°47' E 013°33'0 0.0
2018-May-09 15:28N 45°47' E 013°33'0 0.0
2018-May-09 14:58N 45°47' E 013°33'0 0.0
2018-May-09 14:28N 45°47' E 013°33'0 0.0
2018-May-09 13:58N 45°47' E 013°33'0 0.0
2018-May-09 13:28N 45°47' E 013°33'0 0.0
2018-May-09 12:58N 45°47' E 013°33'0 0.0
2018-May-09 12:28N 45°47' E 013°33'0 0.0
2018-May-09 11:58N 45°47' E 013°33'0 0.0
2018-May-09 11:25N 45°47' E 013°33'0 0.0
2018-May-09 10:58N 45°47' E 013°33'0 0.0
2018-May-09 10:22N 45°47' E 013°33'0 0.0
2018-May-09 09:58N 45°47' E 013°33'0 0.0
2018-May-09 09:28N 45°47' E 013°33'0 0.0
2018-May-09 08:55N 45°47' E 013°33'0 0.0
2018-May-09 08:28N 45°47' E 013°33'0 0.0
2018-May-09 07:58N 45°47' E 013°33'0 0.0
2018-May-09 07:28N 45°47' E 013°33'0 0.0
2018-May-09 06:55N 45°47' E 013°33'0 0.0
2018-May-09 06:19N 45°47' E 013°33'0 0.0
2018-May-09 05:58N 45°47' E 013°33'0 0.0
2018-May-09 05:28N 45°47' E 013°33'0 0.0
2018-May-09 04:55N 45°47' E 013°33'0 0.0
2018-May-09 04:25N 45°47' E 013°33'0 0.0
2018-May-09 03:58N 45°47' E 013°33'0 0.6
2018-May-09 03:30N 45°47' E 013°33'3 6.3
2018-May-09 03:00N 45°44' E 013°36'4 7.7
2018-May-09 02:30N 45°41' E 013°38'611.9
2018-May-09 02:00N 45°36' E 013°34'612.3
2018-May-09 01:30N 45°32' E 013°27'612.1
2018-May-09 01:00N 45°29' E 013°20'612.0
2018-May-09 00:30N 45°24' E 013°14'510.2
2018-May-09 00:00N 45°19' E 013°12'611.5
2018-May-08 23:30N 45°14' E 013°14'611.6
2018-May-08 23:00N 45°08' E 013°16'612.4
2018-May-08 22:30N 45°02' E 013°18'612.5
2018-May-08 22:00N 44°57' E 013°23'612.6
2018-May-08 21:30N 44°52' E 013°27'612.6
2018-May-08 21:00N 44°46' E 013°32'612.5
2018-May-08 20:30N 44°41' E 013°37'912.4
2018-May-08 19:49N 44°34' E 013°43'1412.3
2018-May-08 18:42N 44°22' E 013°54'1212.5
2018-May-08 17:45N 44°12' E 014°03'312.6
2018-May-08 17:30N 44°10' E 014°05'712.7
2018-May-08 16:58N 44°04' E 014°11'  
Track history (hours):
 
Tides and Currents Weather Stations Pressure Air Temp Water Temp Dewpoint Dewpoint Depression Visibility Wind Speed Wind Dir Waves Ship Positions

Fagelgracht

Last reported at 2018-May-18 06:07 UTC. Time now 2018-May-26 23:12 UTC.
Position N 43°36' W 005°57'.
Warning: this ship's position is 8 days out of date.

Length 136 m; draft 8.7 m.

Type: Cargo ship. MMSI: 246591000.

Date/timePositionNaut miles runAvg speedWind from/ knotsBaromVisibWave heightAir tempDewpointWater temp
2018-May-18 06:07N 43°36' W 005°57'1 5.6
2018-May-18 05:52N 43°37' W 005°58'4 8.7
2018-May-18 05:27N 43°39' W 006°03'710.7
2018-May-18 04:48N 43°42' W 006°11'311.2
2018-May-18 04:29N 43°43' W 006°16'253 9.4
2018-May-17 01:29N 40°26' W 009°50'612.8
2018-May-17 01:00N 40°20' W 009°50'612.7
2018-May-17 00:30N 40°14' W 009°50'612.9
2018-May-17 00:00N 40°08' W 009°50'2913.3
2018-May-16 21:50N 39°39' W 009°51'413.2
2018-May-16 21:30N 39°34' W 009°51'1313.4
2018-May-16 20:33N 39°22' W 009°51'113.2
2018-May-16 20:29N 39°21' W 009°51'613.1
2018-May-16 20:00N 39°14' W 009°51'713.1
2018-May-16 19:30N 39°08' W 009°51'612.5
2018-May-16 19:00N 39°02' W 009°51'612.7
2018-May-16 18:30N 38°55' W 009°51'612.7
2018-May-16 18:00N 38°49' W 009°52'612.4
2018-May-16 17:30N 38°43' W 009°51'612.8
2018-May-16 17:00N 38°36' W 009°50'612.5
2018-May-16 16:30N 38°30' W 009°48'612.2
2018-May-16 16:00N 38°24' W 009°47'612.6
2018-May-16 15:30N 38°18' W 009°44'612.9
2018-May-16 15:00N 38°12' W 009°42'612.6
2018-May-16 14:30N 38°06' W 009°40'612.7
2018-May-16 14:00N 37°60' W 009°39'612.6
2018-May-16 13:30N 37°54' W 009°37'612.6
2018-May-16 13:00N 37°47' W 009°35'612.4
2018-May-16 12:30N 37°41' W 009°33'612.5
2018-May-16 12:00N 37°35' W 009°32'612.1
2018-May-16 11:30N 37°29' W 009°30'612.5
2018-May-16 11:00N 37°23' W 009°28'612.7
2018-May-16 10:30N 37°17' W 009°26'612.6
2018-May-16 10:00N 37°11' W 009°25'612.6
2018-May-16 09:30N 37°05' W 009°23'612.5
2018-May-16 09:00N 36°59' W 009°21'612.7
2018-May-16 08:30N 36°52' W 009°19'612.8
2018-May-16 08:00N 36°48' W 009°13'612.8
2018-May-16 07:30N 36°44' W 009°07'613.1
2018-May-16 07:00N 36°42' W 008°60'713.5
2018-May-16 06:30N 36°40' W 008°52'713.6
2018-May-16 06:00N 36°37' W 008°44'714.2
2018-May-16 05:30N 36°35' W 008°35'714.2
2018-May-16 05:00N 36°34' W 008°27'714.6
2018-May-16 04:30N 36°32' W 008°18'714.6
2018-May-16 04:00N 36°29' W 008°09'714.8
2018-May-16 03:30N 36°27' W 008°00'12014.7
2018-May-15 19:20N 35°58' W 005°36'413.3
2018-May-15 19:00N 35°59' W 005°31'712.7
2018-May-15 18:29N 36°00' W 005°23'613.1
2018-May-15 18:00N 36°02' W 005°15'19514.5
2018-May-15 04:33N 36°32' W 001°16'315.0
2018-May-15 04:20N 36°32' W 001°12'515.2
2018-May-15 04:00N 36°33' W 001°06'815.4
2018-May-15 03:30N 36°35' W 000°56'815.4
2018-May-15 02:58N 36°36' W 000°46'715.5
2018-May-15 02:30N 36°37' W 000°38'815.6
2018-May-15 02:00N 36°39' W 000°28'815.6
2018-May-15 01:30N 36°40' W 000°18'815.6
2018-May-15 01:00N 36°41' W 000°09'815.4
2018-May-15 00:30N 36°42' E 000°01'815.3
2018-May-14 23:59N 36°43' E 000°11'715.3
2018-May-14 23:30N 36°44' E 000°20'815.3
2018-May-14 23:00N 36°46' E 000°29'915.0
2018-May-14 22:26N 36°47' E 000°40'1214.5
2018-May-14 21:35N 36°49' E 000°55'114.2
2018-May-14 21:30N 36°49' E 000°56'713.9
2018-May-14 21:00N 36°50' E 001°05'713.6
2018-May-14 20:30N 36°51' E 001°13'53913.7
2018-May-13 05:10N 37°01' E 012°28'214.6
2018-May-13 05:00N 37°01' E 012°31'714.6
2018-May-13 04:29N 36°58' E 012°40'714.7
2018-May-13 04:00N 36°56' E 012°48'714.5
2018-May-13 03:30N 36°53' E 012°57'714.7
2018-May-13 03:00N 36°51' E 013°05'814.7
2018-May-13 02:29N 36°49' E 013°14'714.7
2018-May-13 02:00N 36°47' E 013°23'1814.7
2018-May-13 00:48N 36°41' E 013°44'514.8
2018-May-13 00:28N 36°40' E 013°50'1014.6
2018-May-12 23:45N 36°37' E 014°02'414.6
2018-May-12 23:30N 36°36' E 014°07'714.5
2018-May-12 23:00N 36°35' E 014°15'814.5
2018-May-12 22:26N 36°33' E 014°25'614.5
2018-May-12 22:00N 36°30' E 014°32'714.3
2018-May-12 21:30N 36°27' E 014°41'714.3
2018-May-12 21:00N 36°28' E 014°49'714.0
2018-May-12 20:30N 36°29' E 014°58'714.7
2018-May-12 20:00N 36°30' E 015°07'8614.0
2018-May-12 13:50N 37°33' E 016°20'40611.7
2018-May-11 03:06N 44°05' E 014°03'1014.8
2018-May-11 02:26N 44°14' E 013°55'814.8
2018-May-11 01:52N 44°21' E 013°49'1414.9
2018-May-11 00:54N 44°33' E 013°38'2114.9
2018-May-10 23:31N 44°50' E 013°22'114.9
2018-May-10 23:29N 44°50' E 013°22'714.8
2018-May-10 23:00N 44°56' E 013°16'714.8
2018-May-10 22:30N 45°02' E 013°10'714.9
2018-May-10 22:00N 45°08' E 013°04'815.1
2018-May-10 21:30N 45°16' E 013°02'713.9
2018-May-10 21:00N 45°23' E 013°02'714.7
2018-May-10 20:30N 45°28' E 013°10'714.8
2018-May-10 20:00N 45°33' E 013°18'714.4
2018-May-10 19:30N 45°36' E 013°27'714.4
2018-May-10 19:00N 45°39' E 013°36'612.1
2018-May-10 18:30N 45°46' E 013°35'2 3.8
2018-May-10 17:58N 45°47' E 013°33'0 0.0
2018-May-10 17:16N 45°47' E 013°33'0 0.0
2018-May-10 16:58N 45°47' E 013°33'0 0.0
2018-May-10 16:22N 45°47' E 013°33'0 0.0
2018-May-10 15:58N 45°47' E 013°33'0 0.0
2018-May-10 15:28N 45°47' E 013°33'0 0.0
2018-May-10 14:58N 45°47' E 013°33'0 0.0
2018-May-10 14:28N 45°47' E 013°33'0 0.0
2018-May-10 13:58N 45°47' E 013°33'0 0.0
2018-May-10 13:28N 45°47' E 013°33'0 0.0
2018-May-10 12:52N 45°47' E 013°33'0 0.0
2018-May-10 12:19N 45°47' E 013°33'0 0.0
2018-May-10 11:58N 45°47' E 013°33'0 0.0
2018-May-10 11:28N 45°47' E 013°33'0 0.0
2018-May-10 10:58N 45°47' E 013°33'0 0.0
2018-May-10 10:28N 45°47' E 013°33'0 0.0
2018-May-10 09:52N 45°47' E 013°33'0 0.0
2018-May-10 09:28N 45°47' E 013°33'0 0.0
2018-May-10 08:58N 45°47' E 013°33'0 0.0
2018-May-10 08:28N 45°47' E 013°33'0 0.0
2018-May-10 07:58N 45°47' E 013°33'0 0.0
2018-May-10 07:28N 45°47' E 013°33'0 0.0
2018-May-10 06:58N 45°47' E 013°33'0 0.0
2018-May-10 06:28N 45°47' E 013°33'0 0.0
2018-May-10 05:58N 45°47' E 013°33'0 0.0
2018-May-10 05:25N 45°47' E 013°33'0 0.0
2018-May-10 04:58N 45°47' E 013°33'0 0.0
2018-May-10 04:28N 45°47' E 013°33'0 0.0
2018-May-10 03:55N 45°47' E 013°33'0 0.0
2018-May-10 03:28N 45°47' E 013°33'0 0.0
2018-May-10 02:58N 45°47' E 013°33'0 0.0
2018-May-10 02:28N 45°47' E 013°33'0 0.0
2018-May-10 01:58N 45°47' E 013°33'0 0.0
2018-May-10 01:28N 45°47' E 013°33'0 0.0
2018-May-10 00:58N 45°47' E 013°33'0 0.0
2018-May-10 00:22N 45°47' E 013°33'0 0.0
2018-May-09 23:52N 45°47' E 013°33'0 0.0
2018-May-09 23:22N 45°47' E 013°33'0 0.0
2018-May-09 22:58N 45°47' E 013°33'0 0.0
2018-May-09 22:28N 45°47' E 013°33'0 0.0
2018-May-09 21:58N 45°47' E 013°33'0 0.0
2018-May-09 21:28N 45°47' E 013°33'0 0.0
2018-May-09 20:49N 45°47' E 013°33'0 0.0
2018-May-09 20:22N 45°47' E 013°33'0 0.0
2018-May-09 19:55N 45°47' E 013°33'0 0.0
2018-May-09 19:25N 45°47' E 013°33'0 0.0
2018-May-09 18:58N 45°47' E 013°33'0 0.0
2018-May-09 18:22N 45°47' E 013°33'0 0.0
2018-May-09 17:55N 45°47' E 013°33'0 0.0
2018-May-09 17:19N 45°47' E 013°33'0 0.0
2018-May-09 16:58N 45°47' E 013°33'0 0.0
2018-May-09 16:28N 45°47' E 013°33'0 0.0
2018-May-09 15:52N 45°47' E 013°33'0 0.0
2018-May-09 15:28N 45°47' E 013°33'0 0.0
2018-May-09 14:58N 45°47' E 013°33'0 0.0
2018-May-09 14:28N 45°47' E 013°33'0 0.0
2018-May-09 13:58N 45°47' E 013°33'0 0.0
2018-May-09 13:28N 45°47' E 013°33'0 0.0
2018-May-09 12:58N 45°47' E 013°33'0 0.0
2018-May-09 12:28N 45°47' E 013°33'0 0.0
2018-May-09 11:58N 45°47' E 013°33'0 0.0
2018-May-09 11:25N 45°47' E 013°33'0 0.0
2018-May-09 10:58N 45°47' E 013°33'0 0.0
2018-May-09 10:22N 45°47' E 013°33'0 0.0
2018-May-09 09:58N 45°47' E 013°33'0 0.0
2018-May-09 09:28N 45°47' E 013°33'0 0.0
2018-May-09 08:55N 45°47' E 013°33'0 0.0
2018-May-09 08:28N 45°47' E 013°33'0 0.0
2018-May-09 07:58N 45°47' E 013°33'0 0.0
2018-May-09 07:28N 45°47' E 013°33'0 0.0
2018-May-09 06:55N 45°47' E 013°33'0 0.0
2018-May-09 06:19N 45°47' E 013°33'0 0.0
2018-May-09 05:58N 45°47' E 013°33'0 0.0
2018-May-09 05:28N 45°47' E 013°33'0 0.0
2018-May-09 04:55N 45°47' E 013°33'0 0.0
2018-May-09 04:25N 45°47' E 013°33'0 0.0
2018-May-09 03:58N 45°47' E 013°33'0 0.6
2018-May-09 03:30N 45°47' E 013°33'3 6.3
2018-May-09 03:00N 45°44' E 013°36'4 7.7
2018-May-09 02:30N 45°41' E 013°38'611.9
2018-May-09 02:00N 45°36' E 013°34'612.3
2018-May-09 01:30N 45°32' E 013°27'612.1
2018-May-09 01:00N 45°29' E 013°20'612.0
2018-May-09 00:30N 45°24' E 013°14'510.2
2018-May-09 00:00N 45°19' E 013°12'611.5
2018-May-08 23:30N 45°14' E 013°14'611.6
2018-May-08 23:00N 45°08' E 013°16'612.4
2018-May-08 22:30N 45°02' E 013°18'612.5
2018-May-08 22:00N 44°57' E 013°23'612.6
2018-May-08 21:30N 44°52' E 013°27'612.6
2018-May-08 21:00N 44°46' E 013°32'612.5
2018-May-08 20:30N 44°41' E 013°37'912.4
2018-May-08 19:49N 44°34' E 013°43'1412.3
2018-May-08 18:42N 44°22' E 013°54'1212.5
2018-May-08 17:45N 44°12' E 014°03'312.6
2018-May-08 17:30N 44°10' E 014°05'712.7
2018-May-08 16:58N 44°04' E 014°11'  

Dump ship's entire track history